sensor_id;sensor_type;location;lat;lon;timestamp;P1;durP1;ratioP1;P2;durP2;ratioP2
49910;SDS011;35803;53.096;5.844;2023-04-28T00:00:55;8.70;;;5.68;;
49910;SDS011;35803;53.096;5.844;2023-04-28T00:03:20;10.48;;;4.97;;
49910;SDS011;35803;53.096;5.844;2023-04-28T00:05:46;8.95;;;5.07;;
49910;SDS011;35803;53.096;5.844;2023-04-28T00:08:13;10.00;;;5.00;;
49910;SDS011;35803;53.096;5.844;2023-04-28T00:10:39;7.57;;;4.38;;
49910;SDS011;35803;53.096;5.844;2023-04-28T00:13:04;7.70;;;4.57;;
49910;SDS011;35803;53.096;5.844;2023-04-28T00:15:30;7.72;;;4.82;;
49910;SDS011;35803;53.096;5.844;2023-04-28T00:17:56;8.50;;;4.93;;
49910;SDS011;35803;53.096;5.844;2023-04-28T00:20:21;11.82;;;5.28;;
49910;SDS011;35803;53.096;5.844;2023-04-28T00:22:47;11.32;;;5.03;;
49910;SDS011;35803;53.096;5.844;2023-04-28T00:25:13;11.80;;;5.50;;
49910;SDS011;35803;53.096;5.844;2023-04-28T00:27:39;10.88;;;4.82;;
49910;SDS011;35803;53.096;5.844;2023-04-28T00:30:04;9.85;;;4.80;;
49910;SDS011;35803;53.096;5.844;2023-04-28T00:32:31;9.60;;;5.40;;
49910;SDS011;35803;53.096;5.844;2023-04-28T00:34:56;7.68;;;4.78;;
49910;SDS011;35803;53.096;5.844;2023-04-28T00:37:22;8.68;;;4.82;;
49910;SDS011;35803;53.096;5.844;2023-04-28T00:39:47;10.15;;;5.20;;
49910;SDS011;35803;53.096;5.844;2023-04-28T00:42:13;6.82;;;4.38;;
49910;SDS011;35803;53.096;5.844;2023-04-28T00:44:39;14.20;;;4.50;;
49910;SDS011;35803;53.096;5.844;2023-04-28T00:47:05;9.93;;;4.57;;
49910;SDS011;35803;53.096;5.844;2023-04-28T00:49:35;9.48;;;4.25;;
49910;SDS011;35803;53.096;5.844;2023-04-28T00:52:03;9.05;;;4.70;;
49910;SDS011;35803;53.096;5.844;2023-04-28T00:54:31;6.93;;;4.57;;
49910;SDS011;35803;53.096;5.844;2023-04-28T00:56:57;6.18;;;4.32;;
49910;SDS011;35803;53.096;5.844;2023-04-28T00:59:22;8.25;;;4.47;;
49910;SDS011;35803;53.096;5.844;2023-04-28T01:01:48;7.93;;;4.53;;
49910;SDS011;35803;53.096;5.844;2023-04-28T01:04:15;7.18;;;4.50;;
49910;SDS011;35803;53.096;5.844;2023-04-28T01:06:44;6.95;;;4.60;;
49910;SDS011;35803;53.096;5.844;2023-04-28T01:09:10;6.18;;;4.07;;
49910;SDS011;35803;53.096;5.844;2023-04-28T01:11:36;8.55;;;4.55;;
49910;SDS011;35803;53.096;5.844;2023-04-28T01:14:01;7.35;;;4.13;;
49910;SDS011;35803;53.096;5.844;2023-04-28T01:16:27;8.75;;;4.50;;
49910;SDS011;35803;53.096;5.844;2023-04-28T01:18:54;8.30;;;4.65;;
49910;SDS011;35803;53.096;5.844;2023-04-28T01:21:26;8.23;;;4.22;;
49910;SDS011;35803;53.096;5.844;2023-04-28T01:23:56;7.55;;;4.50;;
49910;SDS011;35803;53.096;5.844;2023-04-28T01:26:23;9.15;;;5.00;;
49910;SDS011;35803;53.096;5.844;2023-04-28T01:28:49;7.97;;;4.82;;
49910;SDS011;35803;53.096;5.844;2023-04-28T01:31:15;11.38;;;4.88;;
49910;SDS011;35803;53.096;5.844;2023-04-28T01:33:40;7.72;;;4.72;;
49910;SDS011;35803;53.096;5.844;2023-04-28T01:36:06;9.25;;;5.10;;
49910;SDS011;35803;53.096;5.844;2023-04-28T01:38:45;7.72;;;4.60;;
49910;SDS011;35803;53.096;5.844;2023-04-28T01:41:10;8.55;;;4.50;;
49910;SDS011;35803;53.096;5.844;2023-04-28T01:43:36;7.88;;;4.43;;
49910;SDS011;35803;53.096;5.844;2023-04-28T01:46:01;8.25;;;4.50;;
49910;SDS011;35803;53.096;5.844;2023-04-28T01:48:27;9.18;;;5.35;;
49910;SDS011;35803;53.096;5.844;2023-04-28T01:50:53;8.32;;;4.82;;
49910;SDS011;35803;53.096;5.844;2023-04-28T01:53:18;8.43;;;4.68;;
49910;SDS011;35803;53.096;5.844;2023-04-28T01:55:45;11.07;;;4.95;;
49910;SDS011;35803;53.096;5.844;2023-04-28T01:58:11;9.43;;;5.30;;
49910;SDS011;35803;53.096;5.844;2023-04-28T02:00:37;10.85;;;5.30;;
49910;SDS011;35803;53.096;5.844;2023-04-28T02:03:02;10.00;;;4.70;;
49910;SDS011;35803;53.096;5.844;2023-04-28T02:05:28;11.68;;;4.95;;
49910;SDS011;35803;53.096;5.844;2023-04-28T02:07:54;8.63;;;4.80;;
49910;SDS011;35803;53.096;5.844;2023-04-28T02:10:20;10.27;;;5.38;;
49910;SDS011;35803;53.096;5.844;2023-04-28T02:12:45;10.90;;;5.28;;
49910;SDS011;35803;53.096;5.844;2023-04-28T02:15:11;8.02;;;4.72;;
49910;SDS011;35803;53.096;5.844;2023-04-28T02:17:36;10.63;;;4.93;;
49910;SDS011;35803;53.096;5.844;2023-04-28T02:20:09;9.27;;;5.10;;
49910;SDS011;35803;53.096;5.844;2023-04-28T02:22:35;11.13;;;5.70;;
49910;SDS011;35803;53.096;5.844;2023-04-28T02:25:01;9.93;;;5.15;;
49910;SDS011;35803;53.096;5.844;2023-04-28T02:27:26;6.97;;;4.47;;
49910;SDS011;35803;53.096;5.844;2023-04-28T02:29:52;8.43;;;5.05;;
49910;SDS011;35803;53.096;5.844;2023-04-28T02:32:18;9.02;;;5.30;;
49910;SDS011;35803;53.096;5.844;2023-04-28T02:34:43;8.98;;;4.63;;
49910;SDS011;35803;53.096;5.844;2023-04-28T02:37:09;7.53;;;4.63;;
49910;SDS011;35803;53.096;5.844;2023-04-28T02:39:34;9.00;;;4.95;;
49910;SDS011;35803;53.096;5.844;2023-04-28T02:42:00;8.65;;;5.32;;
49910;SDS011;35803;53.096;5.844;2023-04-28T02:44:27;10.73;;;5.15;;
49910;SDS011;35803;53.096;5.844;2023-04-28T02:46:52;8.60;;;5.15;;
49910;SDS011;35803;53.096;5.844;2023-04-28T02:49:17;8.48;;;5.07;;
49910;SDS011;35803;53.096;5.844;2023-04-28T02:51:43;11.55;;;5.38;;
49910;SDS011;35803;53.096;5.844;2023-04-28T02:54:08;8.93;;;5.35;;
49910;SDS011;35803;53.096;5.844;2023-04-28T02:56:34;8.50;;;5.22;;
49910;SDS011;35803;53.096;5.844;2023-04-28T02:59:01;11.55;;;5.75;;
49910;SDS011;35803;53.096;5.844;2023-04-28T03:01:27;11.85;;;5.90;;
49910;SDS011;35803;53.096;5.844;2023-04-28T03:03:52;13.10;;;6.25;;
49910;SDS011;35803;53.096;5.844;2023-04-28T03:06:18;9.13;;;5.25;;
49910;SDS011;35803;53.096;5.844;2023-04-28T03:08:43;10.13;;;5.25;;
49910;SDS011;35803;53.096;5.844;2023-04-28T03:11:09;9.68;;;5.63;;
49910;SDS011;35803;53.096;5.844;2023-04-28T03:13:35;12.15;;;6.05;;
49910;SDS011;35803;53.096;5.844;2023-04-28T03:16:01;10.55;;;5.72;;
49910;SDS011;35803;53.096;5.844;2023-04-28T03:18:27;9.68;;;5.43;;
49910;SDS011;35803;53.096;5.844;2023-04-28T03:20:52;10.50;;;5.50;;
49910;SDS011;35803;53.096;5.844;2023-04-28T03:23:18;11.88;;;6.05;;
49910;SDS011;35803;53.096;5.844;2023-04-28T03:25:43;11.38;;;6.10;;
49910;SDS011;35803;53.096;5.844;2023-04-28T03:28:09;11.68;;;5.93;;
49910;SDS011;35803;53.096;5.844;2023-04-28T03:30:35;9.50;;;5.43;;
49910;SDS011;35803;53.096;5.844;2023-04-28T03:33:00;13.60;;;5.47;;
49910;SDS011;35803;53.096;5.844;2023-04-28T03:35:26;10.15;;;5.70;;
49910;SDS011;35803;53.096;5.844;2023-04-28T03:37:51;12.25;;;5.70;;
49910;SDS011;35803;53.096;5.844;2023-04-28T03:40:17;13.13;;;6.88;;
49910;SDS011;35803;53.096;5.844;2023-04-28T03:42:43;11.25;;;5.97;;
49910;SDS011;35803;53.096;5.844;2023-04-28T03:45:09;11.55;;;6.30;;
49910;SDS011;35803;53.096;5.844;2023-04-28T03:47:35;14.00;;;5.75;;
49910;SDS011;35803;53.096;5.844;2023-04-28T03:50:01;10.93;;;6.25;;
49910;SDS011;35803;53.096;5.844;2023-04-28T03:52:34;13.25;;;6.18;;
49910;SDS011;35803;53.096;5.844;2023-04-28T03:54:59;11.10;;;6.35;;
49910;SDS011;35803;53.096;5.844;2023-04-28T03:57:25;10.43;;;6.10;;
49910;SDS011;35803;53.096;5.844;2023-04-28T03:59:51;13.18;;;6.22;;
49910;SDS011;35803;53.096;5.844;2023-04-28T04:02:16;12.20;;;5.43;;
49910;SDS011;35803;53.096;5.844;2023-04-28T04:04:41;12.80;;;6.18;;
49910;SDS011;35803;53.096;5.844;2023-04-28T04:07:07;12.32;;;6.55;;
49910;SDS011;35803;53.096;5.844;2023-04-28T04:09:37;13.32;;;6.88;;
49910;SDS011;35803;53.096;5.844;2023-04-28T04:12:03;13.52;;;6.40;;
49910;SDS011;35803;53.096;5.844;2023-04-28T04:14:28;10.35;;;6.25;;
49910;SDS011;35803;53.096;5.844;2023-04-28T04:16:54;11.10;;;6.28;;
49910;SDS011;35803;53.096;5.844;2023-04-28T04:19:19;11.45;;;6.80;;
49910;SDS011;35803;53.096;5.844;2023-04-28T04:21:45;11.95;;;6.65;;
49910;SDS011;35803;53.096;5.844;2023-04-28T04:24:10;14.77;;;6.90;;
49910;SDS011;35803;53.096;5.844;2023-04-28T04:26:46;14.00;;;6.70;;
49910;SDS011;35803;53.096;5.844;2023-04-28T04:29:11;13.85;;;6.72;;
49910;SDS011;35803;53.096;5.844;2023-04-28T04:31:37;13.70;;;6.93;;
49910;SDS011;35803;53.096;5.844;2023-04-28T04:34:02;13.73;;;6.93;;
49910;SDS011;35803;53.096;5.844;2023-04-28T04:36:28;13.77;;;7.13;;
49910;SDS011;35803;53.096;5.844;2023-04-28T04:38:54;13.95;;;7.28;;
49910;SDS011;35803;53.096;5.844;2023-04-28T04:41:20;12.93;;;6.97;;
49910;SDS011;35803;53.096;5.844;2023-04-28T04:43:53;12.25;;;7.07;;
49910;SDS011;35803;53.096;5.844;2023-04-28T04:46:18;13.43;;;6.90;;
49910;SDS011;35803;53.096;5.844;2023-04-28T04:48:44;12.48;;;6.90;;
49910;SDS011;35803;53.096;5.844;2023-04-28T04:51:09;14.00;;;6.63;;
49910;SDS011;35803;53.096;5.844;2023-04-28T04:53:35;14.15;;;6.78;;
49910;SDS011;35803;53.096;5.844;2023-04-28T04:56:01;14.68;;;7.28;;
49910;SDS011;35803;53.096;5.844;2023-04-28T04:58:27;12.77;;;6.20;;
49910;SDS011;35803;53.096;5.844;2023-04-28T05:00:53;14.80;;;7.22;;
49910;SDS011;35803;53.096;5.844;2023-04-28T05:03:19;14.27;;;7.15;;
49910;SDS011;35803;53.096;5.844;2023-04-28T05:05:44;16.70;;;7.95;;
49910;SDS011;35803;53.096;5.844;2023-04-28T05:08:10;15.48;;;7.38;;
49910;SDS011;35803;53.096;5.844;2023-04-28T05:10:36;14.40;;;7.80;;
49910;SDS011;35803;53.096;5.844;2023-04-28T05:13:02;14.77;;;7.03;;
49910;SDS011;35803;53.096;5.844;2023-04-28T05:15:27;13.15;;;6.93;;
49910;SDS011;35803;53.096;5.844;2023-04-28T05:17:53;16.30;;;7.95;;
49910;SDS011;35803;53.096;5.844;2023-04-28T05:20:19;14.05;;;7.40;;
49910;SDS011;35803;53.096;5.844;2023-04-28T05:22:44;14.60;;;7.75;;
49910;SDS011;35803;53.096;5.844;2023-04-28T05:25:10;14.70;;;7.00;;
49910;SDS011;35803;53.096;5.844;2023-04-28T05:27:36;12.45;;;7.30;;
49910;SDS011;35803;53.096;5.844;2023-04-28T05:30:04;15.35;;;6.88;;
49910;SDS011;35803;53.096;5.844;2023-04-28T05:32:30;14.60;;;7.43;;
49910;SDS011;35803;53.096;5.844;2023-04-28T05:34:56;19.50;;;7.75;;
49910;SDS011;35803;53.096;5.844;2023-04-28T05:37:21;16.52;;;8.50;;
49910;SDS011;35803;53.096;5.844;2023-04-28T05:39:47;16.42;;;7.28;;
49910;SDS011;35803;53.096;5.844;2023-04-28T05:42:12;15.02;;;7.97;;
49910;SDS011;35803;53.096;5.844;2023-04-28T05:44:38;16.63;;;7.85;;
49910;SDS011;35803;53.096;5.844;2023-04-28T05:47:03;17.35;;;7.65;;
49910;SDS011;35803;53.096;5.844;2023-04-28T05:49:29;15.30;;;7.65;;
49910;SDS011;35803;53.096;5.844;2023-04-28T05:51:54;15.05;;;7.57;;
49910;SDS011;35803;53.096;5.844;2023-04-28T05:54:20;16.48;;;7.25;;
49910;SDS011;35803;53.096;5.844;2023-04-28T05:56:46;16.80;;;7.72;;
49910;SDS011;35803;53.096;5.844;2023-04-28T05:59:11;17.92;;;7.18;;
49910;SDS011;35803;53.096;5.844;2023-04-28T06:01:37;14.50;;;7.88;;
49910;SDS011;35803;53.096;5.844;2023-04-28T06:04:03;16.70;;;7.90;;
49910;SDS011;35803;53.096;5.844;2023-04-28T06:06:28;15.80;;;7.93;;
49910;SDS011;35803;53.096;5.844;2023-04-28T06:08:54;14.95;;;8.05;;
49910;SDS011;35803;53.096;5.844;2023-04-28T06:11:19;15.50;;;8.18;;
49910;SDS011;35803;53.096;5.844;2023-04-28T06:13:47;15.52;;;7.68;;
49910;SDS011;35803;53.096;5.844;2023-04-28T06:16:14;16.75;;;7.90;;
49910;SDS011;35803;53.096;5.844;2023-04-28T06:18:40;16.67;;;8.00;;
49910;SDS011;35803;53.096;5.844;2023-04-28T06:21:06;16.35;;;7.20;;
49910;SDS011;35803;53.096;5.844;2023-04-28T06:23:32;15.43;;;7.72;;
49910;SDS011;35803;53.096;5.844;2023-04-28T06:25:57;15.60;;;7.78;;
49910;SDS011;35803;53.096;5.844;2023-04-28T06:28:23;18.10;;;8.35;;
49910;SDS011;35803;53.096;5.844;2023-04-28T06:30:48;16.95;;;8.20;;
49910;SDS011;35803;53.096;5.844;2023-04-28T06:33:14;15.80;;;7.32;;
49910;SDS011;35803;53.096;5.844;2023-04-28T06:35:40;15.75;;;7.90;;
49910;SDS011;35803;53.096;5.844;2023-04-28T06:38:05;17.42;;;7.95;;
49910;SDS011;35803;53.096;5.844;2023-04-28T06:40:31;14.82;;;7.60;;
49910;SDS011;35803;53.096;5.844;2023-04-28T06:42:57;15.75;;;7.82;;
49910;SDS011;35803;53.096;5.844;2023-04-28T06:45:22;15.52;;;7.22;;
49910;SDS011;35803;53.096;5.844;2023-04-28T06:47:48;15.85;;;7.75;;
49910;SDS011;35803;53.096;5.844;2023-04-28T06:50:13;15.70;;;7.90;;
49910;SDS011;35803;53.096;5.844;2023-04-28T06:52:45;14.68;;;7.75;;
49910;SDS011;35803;53.096;5.844;2023-04-28T06:55:14;16.25;;;7.38;;
49910;SDS011;35803;53.096;5.844;2023-04-28T06:57:40;15.52;;;7.97;;
49910;SDS011;35803;53.096;5.844;2023-04-28T07:00:07;14.32;;;7.53;;
49910;SDS011;35803;53.096;5.844;2023-04-28T07:02:32;14.10;;;8.02;;
49910;SDS011;35803;53.096;5.844;2023-04-28T07:04:59;17.42;;;8.32;;
49910;SDS011;35803;53.096;5.844;2023-04-28T07:07:24;14.73;;;8.35;;
49910;SDS011;35803;53.096;5.844;2023-04-28T07:09:50;16.02;;;7.95;;
49910;SDS011;35803;53.096;5.844;2023-04-28T07:12:17;14.98;;;7.70;;
49910;SDS011;35803;53.096;5.844;2023-04-28T07:14:43;16.48;;;7.65;;
49910;SDS011;35803;53.096;5.844;2023-04-28T07:17:08;14.48;;;7.53;;
49910;SDS011;35803;53.096;5.844;2023-04-28T07:19:34;15.23;;;7.85;;
49910;SDS011;35803;53.096;5.844;2023-04-28T07:21:59;15.80;;;7.57;;
49910;SDS011;35803;53.096;5.844;2023-04-28T07:24:25;13.60;;;8.05;;
49910;SDS011;35803;53.096;5.844;2023-04-28T07:26:51;15.35;;;7.95;;
49910;SDS011;35803;53.096;5.844;2023-04-28T07:29:17;15.35;;;8.13;;
49910;SDS011;35803;53.096;5.844;2023-04-28T07:31:42;14.43;;;7.88;;
49910;SDS011;35803;53.096;5.844;2023-04-28T07:34:08;13.95;;;7.50;;
49910;SDS011;35803;53.096;5.844;2023-04-28T07:36:33;16.75;;;8.13;;
49910;SDS011;35803;53.096;5.844;2023-04-28T07:38:59;16.98;;;8.07;;
49910;SDS011;35803;53.096;5.844;2023-04-28T07:41:26;15.65;;;7.68;;
49910;SDS011;35803;53.096;5.844;2023-04-28T07:43:52;14.07;;;7.65;;
49910;SDS011;35803;53.096;5.844;2023-04-28T07:46:17;16.00;;;8.02;;
49910;SDS011;35803;53.096;5.844;2023-04-28T07:48:43;18.58;;;8.40;;
49910;SDS011;35803;53.096;5.844;2023-04-28T07:51:09;14.52;;;8.10;;
49910;SDS011;35803;53.096;5.844;2023-04-28T07:53:35;15.88;;;8.02;;
49910;SDS011;35803;53.096;5.844;2023-04-28T07:56:00;16.73;;;8.85;;
49910;SDS011;35803;53.096;5.844;2023-04-28T07:58:26;17.30;;;9.10;;
49910;SDS011;35803;53.096;5.844;2023-04-28T08:00:52;15.02;;;7.88;;
49910;SDS011;35803;53.096;5.844;2023-04-28T08:03:18;15.88;;;8.10;;
49910;SDS011;35803;53.096;5.844;2023-04-28T08:05:43;23.00;;;8.85;;
49910;SDS011;35803;53.096;5.844;2023-04-28T08:08:09;14.63;;;8.60;;
49910;SDS011;35803;53.096;5.844;2023-04-28T08:10:35;18.00;;;8.68;;
49910;SDS011;35803;53.096;5.844;2023-04-28T08:13:02;18.10;;;8.65;;
49910;SDS011;35803;53.096;5.844;2023-04-28T08:15:27;17.23;;;8.52;;
49910;SDS011;35803;53.096;5.844;2023-04-28T08:17:53;15.90;;;8.38;;
49910;SDS011;35803;53.096;5.844;2023-04-28T08:20:19;15.40;;;8.23;;
49910;SDS011;35803;53.096;5.844;2023-04-28T08:22:45;16.33;;;8.57;;
49910;SDS011;35803;53.096;5.844;2023-04-28T08:25:11;16.77;;;8.45;;
49910;SDS011;35803;53.096;5.844;2023-04-28T08:27:36;17.05;;;9.07;;
49910;SDS011;35803;53.096;5.844;2023-04-28T08:30:07;18.30;;;8.18;;
49910;SDS011;35803;53.096;5.844;2023-04-28T08:32:33;19.02;;;9.18;;
49910;SDS011;35803;53.096;5.844;2023-04-28T08:34:59;16.92;;;8.70;;
49910;SDS011;35803;53.096;5.844;2023-04-28T08:37:28;17.98;;;9.77;;
49910;SDS011;35803;53.096;5.844;2023-04-28T08:39:53;17.65;;;8.85;;
49910;SDS011;35803;53.096;5.844;2023-04-28T08:42:29;15.93;;;9.02;;
49910;SDS011;35803;53.096;5.844;2023-04-28T08:44:56;17.60;;;8.43;;
49910;SDS011;35803;53.096;5.844;2023-04-28T08:47:27;16.17;;;8.80;;
49910;SDS011;35803;53.096;5.844;2023-04-28T08:50:07;19.80;;;9.80;;
49910;SDS011;35803;53.096;5.844;2023-04-28T08:52:34;18.95;;;9.57;;
49910;SDS011;35803;53.096;5.844;2023-04-28T08:55:04;18.45;;;9.25;;
49910;SDS011;35803;53.096;5.844;2023-04-28T08:57:37;18.35;;;8.93;;
49910;SDS011;35803;53.096;5.844;2023-04-28T09:00:20;15.32;;;8.27;;
49910;SDS011;35803;53.096;5.844;2023-04-28T09:02:45;15.73;;;9.25;;
49910;SDS011;35803;53.096;5.844;2023-04-28T09:05:11;16.48;;;9.27;;
49910;SDS011;35803;53.096;5.844;2023-04-28T09:07:38;18.10;;;9.63;;
49910;SDS011;35803;53.096;5.844;2023-04-28T09:10:23;17.15;;;9.27;;
49910;SDS011;35803;53.096;5.844;2023-04-28T09:12:52;13.93;;;8.32;;
49910;SDS011;35803;53.096;5.844;2023-04-28T09:15:32;15.40;;;8.70;;
49910;SDS011;35803;53.096;5.844;2023-04-28T09:17:59;16.17;;;8.60;;
49910;SDS011;35803;53.096;5.844;2023-04-28T09:20:27;16.75;;;8.80;;
49910;SDS011;35803;53.096;5.844;2023-04-28T09:23:11;17.40;;;8.85;;
49910;SDS011;35803;53.096;5.844;2023-04-28T09:25:58;18.00;;;8.85;;
49910;SDS011;35803;53.096;5.844;2023-04-28T09:28:24;14.90;;;8.70;;
49910;SDS011;35803;53.096;5.844;2023-04-28T09:30:50;14.45;;;8.02;;
49910;SDS011;35803;53.096;5.844;2023-04-28T09:33:16;15.00;;;8.88;;
49910;SDS011;35803;53.096;5.844;2023-04-28T09:35:44;17.08;;;8.98;;
49910;SDS011;35803;53.096;5.844;2023-04-28T09:38:11;21.15;;;9.82;;
49910;SDS011;35803;53.096;5.844;2023-04-28T09:40:59;15.75;;;9.18;;
49910;SDS011;35803;53.096;5.844;2023-04-28T09:43:27;14.73;;;8.82;;
49910;SDS011;35803;53.096;5.844;2023-04-28T09:45:58;17.30;;;8.30;;
49910;SDS011;35803;53.096;5.844;2023-04-28T09:48:27;14.75;;;8.60;;
49910;SDS011;35803;53.096;5.844;2023-04-28T09:50:55;12.93;;;8.45;;
49910;SDS011;35803;53.096;5.844;2023-04-28T09:53:22;18.52;;;8.85;;
49910;SDS011;35803;53.096;5.844;2023-04-28T09:55:49;13.93;;;9.02;;
49910;SDS011;35803;53.096;5.844;2023-04-28T09:58:17;15.48;;;9.05;;
49910;SDS011;35803;53.096;5.844;2023-04-28T10:00:44;15.30;;;7.95;;
49910;SDS011;35803;53.096;5.844;2023-04-28T10:03:13;13.98;;;8.55;;
49910;SDS011;35803;53.096;5.844;2023-04-28T10:05:39;14.73;;;8.10;;
49910;SDS011;35803;53.096;5.844;2023-04-28T10:08:05;12.32;;;7.88;;
49910;SDS011;35803;53.096;5.844;2023-04-28T10:10:33;15.05;;;8.45;;
49910;SDS011;35803;53.096;5.844;2023-04-28T10:12:59;13.55;;;8.40;;
49910;SDS011;35803;53.096;5.844;2023-04-28T10:15:25;16.92;;;8.70;;
49910;SDS011;35803;53.096;5.844;2023-04-28T10:17:51;14.13;;;8.18;;
49910;SDS011;35803;53.096;5.844;2023-04-28T10:20:17;12.88;;;7.65;;
49910;SDS011;35803;53.096;5.844;2023-04-28T10:25:53;16.60;;;8.05;;
49910;SDS011;35803;53.096;5.844;2023-04-28T10:28:24;13.55;;;8.30;;
49910;SDS011;35803;53.096;5.844;2023-04-28T10:33:42;11.98;;;8.13;;
49910;SDS011;35803;53.096;5.844;2023-04-28T10:36:08;16.33;;;8.32;;
49910;SDS011;35803;53.096;5.844;2023-04-28T10:38:35;14.75;;;8.43;;
49910;SDS011;35803;53.096;5.844;2023-04-28T10:41:01;14.20;;;7.88;;
49910;SDS011;35803;53.096;5.844;2023-04-28T10:48:19;12.63;;;7.95;;
49910;SDS011;35803;53.096;5.844;2023-04-28T10:56:20;12.73;;;7.55;;
49910;SDS011;35803;53.096;5.844;2023-04-28T10:58:54;12.40;;;8.13;;
49910;SDS011;35803;53.096;5.844;2023-04-28T11:01:45;13.35;;;7.75;;
49910;SDS011;35803;53.096;5.844;2023-04-28T11:04:11;14.55;;;7.72;;
49910;SDS011;35803;53.096;5.844;2023-04-28T11:16:55;12.75;;;7.53;;
49910;SDS011;35803;53.096;5.844;2023-04-28T11:19:42;10.70;;;7.38;;
49910;SDS011;35803;53.096;5.844;2023-04-28T11:22:12;12.30;;;7.47;;
49910;SDS011;35803;53.096;5.844;2023-04-28T11:24:39;14.13;;;7.82;;
49910;SDS011;35803;53.096;5.844;2023-04-28T11:27:05;13.30;;;7.70;;
49910;SDS011;35803;53.096;5.844;2023-04-28T11:29:34;15.02;;;8.57;;
49910;SDS011;35803;53.096;5.844;2023-04-28T11:32:07;11.95;;;8.07;;
49910;SDS011;35803;53.096;5.844;2023-04-28T11:34:33;12.45;;;7.72;;
49910;SDS011;35803;53.096;5.844;2023-04-28T11:37:02;12.57;;;8.65;;
49910;SDS011;35803;53.096;5.844;2023-04-28T11:39:30;12.25;;;8.32;;
49910;SDS011;35803;53.096;5.844;2023-04-28T11:42:01;16.08;;;8.70;;
49910;SDS011;35803;53.096;5.844;2023-04-28T11:44:34;13.38;;;8.65;;
49910;SDS011;35803;53.096;5.844;2023-04-28T11:47:00;16.08;;;9.23;;
49910;SDS011;35803;53.096;5.844;2023-04-28T11:49:27;15.40;;;8.60;;
49910;SDS011;35803;53.096;5.844;2023-04-28T11:52:01;13.55;;;8.27;;
49910;SDS011;35803;53.096;5.844;2023-04-28T11:54:32;15.02;;;8.55;;
49910;SDS011;35803;53.096;5.844;2023-04-28T11:56:58;14.88;;;9.00;;
49910;SDS011;35803;53.096;5.844;2023-04-28T11:59:32;16.42;;;8.85;;
49910;SDS011;35803;53.096;5.844;2023-04-28T12:02:02;13.82;;;8.65;;
49910;SDS011;35803;53.096;5.844;2023-04-28T12:09:32;15.60;;;8.80;;
49910;SDS011;35803;53.096;5.844;2023-04-28T12:12:01;15.05;;;9.55;;
49910;SDS011;35803;53.096;5.844;2023-04-28T12:14:32;14.48;;;8.57;;
49910;SDS011;35803;53.096;5.844;2023-04-28T12:17:01;14.00;;;8.95;;
49910;SDS011;35803;53.096;5.844;2023-04-28T12:19:28;15.25;;;8.90;;
49910;SDS011;35803;53.096;5.844;2023-04-28T12:22:03;13.20;;;9.15;;
49910;SDS011;35803;53.096;5.844;2023-04-28T12:24:30;13.63;;;8.50;;
49910;SDS011;35803;53.096;5.844;2023-04-28T12:29:49;15.60;;;9.07;;
49910;SDS011;35803;53.096;5.844;2023-04-28T12:32:15;15.43;;;9.98;;
49910;SDS011;35803;53.096;5.844;2023-04-28T12:34:41;16.73;;;10.07;;
49910;SDS011;35803;53.096;5.844;2023-04-28T12:37:08;14.18;;;9.48;;
49910;SDS011;35803;53.096;5.844;2023-04-28T12:39:34;14.27;;;9.75;;
49910;SDS011;35803;53.096;5.844;2023-04-28T12:42:01;15.65;;;10.20;;
49910;SDS011;35803;53.096;5.844;2023-04-28T12:44:30;19.00;;;11.00;;
49910;SDS011;35803;53.096;5.844;2023-04-28T12:47:08;18.95;;;11.63;;
49910;SDS011;35803;53.096;5.844;2023-04-28T12:49:35;18.52;;;10.45;;
49910;SDS011;35803;53.096;5.844;2023-04-28T12:52:00;16.90;;;10.85;;
49910;SDS011;35803;53.096;5.844;2023-04-28T12:54:26;19.83;;;11.43;;
49910;SDS011;35803;53.096;5.844;2023-04-28T12:56:52;17.00;;;10.95;;
49910;SDS011;35803;53.096;5.844;2023-04-28T12:59:19;17.30;;;11.23;;
49910;SDS011;35803;53.096;5.844;2023-04-28T13:01:45;19.13;;;11.95;;
49910;SDS011;35803;53.096;5.844;2023-04-28T13:04:11;20.50;;;12.85;;
49910;SDS011;35803;53.096;5.844;2023-04-28T13:06:37;21.60;;;12.50;;
49910;SDS011;35803;53.096;5.844;2023-04-28T13:09:04;21.63;;;12.57;;
49910;SDS011;35803;53.096;5.844;2023-04-28T13:11:30;18.48;;;11.93;;
49910;SDS011;35803;53.096;5.844;2023-04-28T13:13:56;20.10;;;12.48;;
49910;SDS011;35803;53.096;5.844;2023-04-28T13:16:22;19.30;;;12.65;;
49910;SDS011;35803;53.096;5.844;2023-04-28T13:18:49;18.67;;;12.32;;
49910;SDS011;35803;53.096;5.844;2023-04-28T13:21:16;21.73;;;13.15;;
49910;SDS011;35803;53.096;5.844;2023-04-28T13:23:44;21.20;;;12.93;;
49910;SDS011;35803;53.096;5.844;2023-04-28T13:26:10;21.67;;;13.45;;
49910;SDS011;35803;53.096;5.844;2023-04-28T13:28:36;22.77;;;13.77;;
49910;SDS011;35803;53.096;5.844;2023-04-28T13:31:12;22.92;;;14.73;;
49910;SDS011;35803;53.096;5.844;2023-04-28T13:33:38;22.15;;;14.00;;
49910;SDS011;35803;53.096;5.844;2023-04-28T13:36:04;21.85;;;14.48;;
49910;SDS011;35803;53.096;5.844;2023-04-28T13:38:32;22.17;;;13.55;;
49910;SDS011;35803;53.096;5.844;2023-04-28T13:40:57;22.08;;;14.18;;
49910;SDS011;35803;53.096;5.844;2023-04-28T13:43:23;22.27;;;13.73;;
49910;SDS011;35803;53.096;5.844;2023-04-28T13:45:50;20.90;;;13.48;;
49910;SDS011;35803;53.096;5.844;2023-04-28T13:48:18;22.40;;;13.88;;
49910;SDS011;35803;53.096;5.844;2023-04-28T13:50:44;21.45;;;13.95;;
49910;SDS011;35803;53.096;5.844;2023-04-28T13:53:10;23.23;;;14.32;;
49910;SDS011;35803;53.096;5.844;2023-04-28T13:55:36;21.60;;;14.45;;
49910;SDS011;35803;53.096;5.844;2023-04-28T13:58:01;22.00;;;14.65;;
49910;SDS011;35803;53.096;5.844;2023-04-28T14:00:32;21.45;;;14.02;;
49910;SDS011;35803;53.096;5.844;2023-04-28T14:02:58;23.83;;;14.98;;
49910;SDS011;35803;53.096;5.844;2023-04-28T14:05:25;20.92;;;13.48;;
49910;SDS011;35803;53.096;5.844;2023-04-28T14:07:52;20.63;;;13.40;;
49910;SDS011;35803;53.096;5.844;2023-04-28T14:10:19;28.48;;;14.40;;
49910;SDS011;35803;53.096;5.844;2023-04-28T14:12:46;21.30;;;12.35;;
49910;SDS011;35803;53.096;5.844;2023-04-28T14:15:12;18.23;;;12.23;;
49910;SDS011;35803;53.096;5.844;2023-04-28T14:17:38;22.50;;;12.07;;
49910;SDS011;35803;53.096;5.844;2023-04-28T14:20:04;19.38;;;12.18;;
49910;SDS011;35803;53.096;5.844;2023-04-28T14:22:30;20.08;;;12.32;;
49910;SDS011;35803;53.096;5.844;2023-04-28T14:24:55;19.77;;;12.10;;
49910;SDS011;35803;53.096;5.844;2023-04-28T14:27:21;18.83;;;12.38;;
49910;SDS011;35803;53.096;5.844;2023-04-28T14:29:50;19.85;;;11.98;;
49910;SDS011;35803;53.096;5.844;2023-04-28T14:32:15;20.02;;;12.95;;
49910;SDS011;35803;53.096;5.844;2023-04-28T14:34:45;18.88;;;12.32;;
49910;SDS011;35803;53.096;5.844;2023-04-28T14:37:12;20.02;;;12.68;;
49910;SDS011;35803;53.096;5.844;2023-04-28T14:39:37;18.85;;;12.70;;
49910;SDS011;35803;53.096;5.844;2023-04-28T14:42:04;22.45;;;14.13;;
49910;SDS011;35803;53.096;5.844;2023-04-28T14:44:30;17.95;;;12.60;;
49910;SDS011;35803;53.096;5.844;2023-04-28T14:46:55;21.77;;;13.18;;
49910;SDS011;35803;53.096;5.844;2023-04-28T14:49:21;19.40;;;12.38;;
49910;SDS011;35803;53.096;5.844;2023-04-28T14:51:48;21.02;;;13.25;;
49910;SDS011;35803;53.096;5.844;2023-04-28T14:54:14;19.23;;;13.07;;
49910;SDS011;35803;53.096;5.844;2023-04-28T14:56:39;22.52;;;14.20;;
49910;SDS011;35803;53.096;5.844;2023-04-28T14:59:05;23.20;;;13.88;;
49910;SDS011;35803;53.096;5.844;2023-04-28T15:01:31;21.50;;;13.75;;
49910;SDS011;35803;53.096;5.844;2023-04-28T15:03:56;23.60;;;14.23;;
49910;SDS011;35803;53.096;5.844;2023-04-28T15:06:22;23.88;;;14.95;;